sensor_id;sensor_type;location;lat;lon;timestamp;P1;durP1;ratioP1;P2;durP2;ratioP2
45762;SDS011;37512;52.408;13.356;2022-10-26T00:03:00;9.23;;;5.80;;
45762;SDS011;37512;52.408;13.356;2022-10-26T00:07:01;8.63;;;5.30;;
45762;SDS011;37512;52.408;13.356;2022-10-26T00:11:03;9.73;;;5.63;;
45762;SDS011;37512;52.408;13.356;2022-10-26T00:15:05;10.10;;;6.15;;
45762;SDS011;37512;52.408;13.356;2022-10-26T00:19:08;11.40;;;5.75;;
45762;SDS011;37512;52.408;13.356;2022-10-26T00:23:09;17.33;;;6.50;;
45762;SDS011;37512;52.408;13.356;2022-10-26T00:27:11;13.10;;;6.60;;
45762;SDS011;37512;52.408;13.356;2022-10-26T00:31:12;9.40;;;6.07;;
45762;SDS011;37512;52.408;13.356;2022-10-26T00:35:15;12.77;;;6.63;;
45762;SDS011;37512;52.408;13.356;2022-10-26T00:39:24;11.47;;;6.27;;
45762;SDS011;37512;52.408;13.356;2022-10-26T00:47:35;11.18;;;5.18;;
45762;SDS011;37512;52.408;13.356;2022-10-26T00:51:41;8.85;;;5.32;;
45762;SDS011;37512;52.408;13.356;2022-10-26T00:55:47;8.13;;;4.85;;
45762;SDS011;37512;52.408;13.356;2022-10-26T00:59:50;45.30;;;5.93;;
45762;SDS011;37512;52.408;13.356;2022-10-26T01:03:54;10.27;;;5.95;;
45762;SDS011;37512;52.408;13.356;2022-10-26T01:07:56;9.65;;;5.70;;
45762;SDS011;37512;52.408;13.356;2022-10-26T01:11:58;11.88;;;5.80;;
45762;SDS011;37512;52.408;13.356;2022-10-26T01:29:00;7.07;;;5.25;;
45762;SDS011;37512;52.408;13.356;2022-10-26T01:37:24;8.82;;;5.10;;
45762;SDS011;37512;52.408;13.356;2022-10-26T01:45:36;8.50;;;4.60;;
45762;SDS011;37512;52.408;13.356;2022-10-26T01:49:42;8.05;;;4.65;;
45762;SDS011;37512;52.408;13.356;2022-10-26T01:53:47;8.70;;;5.65;;
45762;SDS011;37512;52.408;13.356;2022-10-26T01:57:49;11.57;;;5.43;;
45762;SDS011;37512;52.408;13.356;2022-10-26T02:11:03;10.77;;;5.38;;
45762;SDS011;37512;52.408;13.356;2022-10-26T02:20:04;7.72;;;4.93;;
45762;SDS011;37512;52.408;13.356;2022-10-26T02:24:09;27.30;;;4.90;;
45762;SDS011;37512;52.408;13.356;2022-10-26T02:28:15;8.43;;;4.75;;
45762;SDS011;37512;52.408;13.356;2022-10-26T02:32:21;6.97;;;5.35;;
45762;SDS011;37512;52.408;13.356;2022-10-26T02:36:26;9.98;;;5.47;;
45762;SDS011;37512;52.408;13.356;2022-10-26T02:40:30;10.27;;;4.95;;
45762;SDS011;37512;52.408;13.356;2022-10-26T02:44:40;7.72;;;4.97;;
45762;SDS011;37512;52.408;13.356;2022-10-26T02:48:46;8.52;;;5.47;;
45762;SDS011;37512;52.408;13.356;2022-10-26T02:52:53;10.18;;;5.60;;
45762;SDS011;37512;52.408;13.356;2022-10-26T02:57:12;11.10;;;5.40;;
45762;SDS011;37512;52.408;13.356;2022-10-26T03:01:39;16.92;;;4.85;;
45762;SDS011;37512;52.408;13.356;2022-10-26T03:05:42;7.25;;;4.93;;
45762;SDS011;37512;52.408;13.356;2022-10-26T03:09:43;14.38;;;4.70;;
45762;SDS011;37512;52.408;13.356;2022-10-26T03:13:45;23.67;;;5.38;;
45762;SDS011;37512;52.408;13.356;2022-10-26T03:17:46;13.95;;;4.97;;
45762;SDS011;37512;52.408;13.356;2022-10-26T03:21:48;13.38;;;4.97;;
45762;SDS011;37512;52.408;13.356;2022-10-26T03:25:50;9.38;;;4.05;;
45762;SDS011;37512;52.408;13.356;2022-10-26T03:29:51;6.20;;;3.78;;
45762;SDS011;37512;52.408;13.356;2022-10-26T03:33:53;5.38;;;3.38;;
45762;SDS011;37512;52.408;13.356;2022-10-26T03:37:54;5.53;;;3.55;;
45762;SDS011;37512;52.408;13.356;2022-10-26T03:41:56;12.88;;;4.60;;
45762;SDS011;37512;52.408;13.356;2022-10-26T03:45:57;19.80;;;4.70;;
45762;SDS011;37512;52.408;13.356;2022-10-26T03:49:59;32.45;;;5.15;;
45762;SDS011;37512;52.408;13.356;2022-10-26T03:54:00;5.90;;;4.78;;
45762;SDS011;37512;52.408;13.356;2022-10-26T03:58:01;6.63;;;4.43;;
45762;SDS011;37512;52.408;13.356;2022-10-26T04:02:03;7.90;;;4.85;;
45762;SDS011;37512;52.408;13.356;2022-10-26T04:06:04;6.47;;;4.35;;
45762;SDS011;37512;52.408;13.356;2022-10-26T04:10:06;4.78;;;3.88;;
45762;SDS011;37512;52.408;13.356;2022-10-26T04:14:08;6.47;;;4.15;;
45762;SDS011;37512;52.408;13.356;2022-10-26T04:18:09;8.50;;;4.53;;
45762;SDS011;37512;52.408;13.356;2022-10-26T04:22:14;18.30;;;4.85;;
45762;SDS011;37512;52.408;13.356;2022-10-26T04:26:15;22.50;;;5.03;;
45762;SDS011;37512;52.408;13.356;2022-10-26T04:30:17;18.13;;;4.88;;
45762;SDS011;37512;52.408;13.356;2022-10-26T04:34:19;42.92;;;4.72;;
45762;SDS011;37512;52.408;13.356;2022-10-26T04:38:20;30.45;;;4.07;;
45762;SDS011;37512;52.408;13.356;2022-10-26T04:42:21;19.75;;;4.25;;
45762;SDS011;37512;52.408;13.356;2022-10-26T04:46:23;15.23;;;4.07;;
45762;SDS011;37512;52.408;13.356;2022-10-26T04:50:24;11.23;;;4.30;;
45762;SDS011;37512;52.408;13.356;2022-10-26T04:54:28;15.82;;;4.28;;
45762;SDS011;37512;52.408;13.356;2022-10-26T04:58:30;17.02;;;4.68;;
45762;SDS011;37512;52.408;13.356;2022-10-26T05:02:31;21.90;;;4.63;;
45762;SDS011;37512;52.408;13.356;2022-10-26T05:06:32;10.30;;;4.13;;
45762;SDS011;37512;52.408;13.356;2022-10-26T05:10:34;18.40;;;4.72;;
45762;SDS011;37512;52.408;13.356;2022-10-26T05:14:35;25.02;;;4.93;;
45762;SDS011;37512;52.408;13.356;2022-10-26T05:18:37;29.35;;;6.22;;
45762;SDS011;37512;52.408;13.356;2022-10-26T05:22:39;30.67;;;6.03;;
45762;SDS011;37512;52.408;13.356;2022-10-26T05:26:41;23.75;;;5.80;;
45762;SDS011;37512;52.408;13.356;2022-10-26T05:30:42;8.68;;;5.30;;
45762;SDS011;37512;52.408;13.356;2022-10-26T05:34:45;17.45;;;5.88;;
45762;SDS011;37512;52.408;13.356;2022-10-26T05:38:47;12.18;;;5.68;;
45762;SDS011;37512;52.408;13.356;2022-10-26T05:42:48;13.55;;;6.50;;
45762;SDS011;37512;52.408;13.356;2022-10-26T05:46:54;17.08;;;5.40;;
45762;SDS011;37512;52.408;13.356;2022-10-26T05:50:59;16.38;;;5.80;;
45762;SDS011;37512;52.408;13.356;2022-10-26T05:55:01;9.82;;;5.95;;
45762;SDS011;37512;52.408;13.356;2022-10-26T05:59:03;12.20;;;6.05;;
45762;SDS011;37512;52.408;13.356;2022-10-26T06:07:21;15.65;;;5.93;;
45762;SDS011;37512;52.408;13.356;2022-10-26T06:11:23;11.50;;;5.82;;
45762;SDS011;37512;52.408;13.356;2022-10-26T06:15:24;12.35;;;6.85;;
45762;SDS011;37512;52.408;13.356;2022-10-26T06:19:32;11.32;;;5.85;;
45762;SDS011;37512;52.408;13.356;2022-10-26T06:23:47;9.85;;;5.63;;
45762;SDS011;37512;52.408;13.356;2022-10-26T06:28:00;8.23;;;5.75;;
45762;SDS011;37512;52.408;13.356;2022-10-26T06:32:07;9.30;;;6.15;;
45762;SDS011;37512;52.408;13.356;2022-10-26T06:40:28;9.95;;;6.03;;
45762;SDS011;37512;52.408;13.356;2022-10-26T06:44:33;8.57;;;5.82;;
45762;SDS011;37512;52.408;13.356;2022-10-26T06:48:42;10.15;;;5.78;;
45762;SDS011;37512;52.408;13.356;2022-10-26T06:53:26;8.93;;;5.97;;
45762;SDS011;37512;52.408;13.356;2022-10-26T06:57:35;11.48;;;6.03;;
45762;SDS011;37512;52.408;13.356;2022-10-26T07:01:39;9.75;;;6.57;;
45762;SDS011;37512;52.408;13.356;2022-10-26T07:05:41;13.68;;;7.75;;
45762;SDS011;37512;52.408;13.356;2022-10-26T07:09:44;11.85;;;6.53;;
45762;SDS011;37512;52.408;13.356;2022-10-26T07:13:45;13.30;;;7.22;;
45762;SDS011;37512;52.408;13.356;2022-10-26T07:17:47;11.30;;;6.88;;
45762;SDS011;37512;52.408;13.356;2022-10-26T07:21:50;14.88;;;7.60;;
45762;SDS011;37512;52.408;13.356;2022-10-26T07:25:51;11.40;;;6.78;;
45762;SDS011;37512;52.408;13.356;2022-10-26T07:29:52;9.88;;;7.50;;
45762;SDS011;37512;52.408;13.356;2022-10-26T07:33:54;12.05;;;6.93;;
45762;SDS011;37512;52.408;13.356;2022-10-26T07:37:56;12.27;;;6.88;;
45762;SDS011;37512;52.408;13.356;2022-10-26T07:41:58;9.52;;;6.55;;
45762;SDS011;37512;52.408;13.356;2022-10-26T07:46:00;10.05;;;6.28;;
45762;SDS011;37512;52.408;13.356;2022-10-26T07:50:01;9.57;;;5.78;;
45762;SDS011;37512;52.408;13.356;2022-10-26T07:54:03;9.68;;;6.50;;
45762;SDS011;37512;52.408;13.356;2022-10-26T07:58:04;11.65;;;6.50;;
45762;SDS011;37512;52.408;13.356;2022-10-26T08:02:08;11.65;;;7.03;;
45762;SDS011;37512;52.408;13.356;2022-10-26T08:06:11;7.88;;;6.82;;
45762;SDS011;37512;52.408;13.356;2022-10-26T08:10:13;10.10;;;6.20;;
45762;SDS011;37512;52.408;13.356;2022-10-26T08:14:15;9.32;;;6.57;;
45762;SDS011;37512;52.408;13.356;2022-10-26T08:18:16;11.38;;;6.70;;
45762;SDS011;37512;52.408;13.356;2022-10-26T08:22:18;15.93;;;6.28;;
45762;SDS011;37512;52.408;13.356;2022-10-26T08:26:19;13.00;;;6.90;;
45762;SDS011;37512;52.408;13.356;2022-10-26T08:30:21;11.45;;;6.35;;
45762;SDS011;37512;52.408;13.356;2022-10-26T08:34:22;10.13;;;6.65;;
45762;SDS011;37512;52.408;13.356;2022-10-26T08:38:24;10.63;;;7.28;;
45762;SDS011;37512;52.408;13.356;2022-10-26T08:42:32;9.63;;;6.70;;
45762;SDS011;37512;52.408;13.356;2022-10-26T08:46:41;11.80;;;6.65;;
45762;SDS011;37512;52.408;13.356;2022-10-26T08:50:51;10.07;;;6.53;;
45762;SDS011;37512;52.408;13.356;2022-10-26T08:54:56;6.88;;;5.70;;
45762;SDS011;37512;52.408;13.356;2022-10-26T08:59:02;8.80;;;6.13;;
45762;SDS011;37512;52.408;13.356;2022-10-26T09:03:15;11.80;;;5.85;;
45762;SDS011;37512;52.408;13.356;2022-10-26T09:11:48;9.48;;;6.63;;
45762;SDS011;37512;52.408;13.356;2022-10-26T09:24:41;8.93;;;6.25;;
45762;SDS011;37512;52.408;13.356;2022-10-26T09:28:52;8.73;;;6.10;;
45762;SDS011;37512;52.408;13.356;2022-10-26T09:32:56;8.52;;;6.30;;
45762;SDS011;37512;52.408;13.356;2022-10-26T09:36:59;9.52;;;6.38;;
45762;SDS011;37512;52.408;13.356;2022-10-26T09:41:28;10.38;;;6.53;;
45762;SDS011;37512;52.408;13.356;2022-10-26T09:45:40;11.13;;;5.57;;
45762;SDS011;37512;52.408;13.356;2022-10-26T09:49:55;8.60;;;5.35;;
45762;SDS011;37512;52.408;13.356;2022-10-26T09:54:13;10.40;;;5.55;;
45762;SDS011;37512;52.408;13.356;2022-10-26T09:58:24;10.98;;;6.03;;
45762;SDS011;37512;52.408;13.356;2022-10-26T10:02:42;10.30;;;5.40;;
45762;SDS011;37512;52.408;13.356;2022-10-26T10:06:46;9.45;;;4.85;;
45762;SDS011;37512;52.408;13.356;2022-10-26T10:10:58;8.60;;;5.03;;
45762;SDS011;37512;52.408;13.356;2022-10-26T10:15:04;5.50;;;3.90;;
45762;SDS011;37512;52.408;13.356;2022-10-26T10:19:09;11.40;;;4.35;;
45762;SDS011;37512;52.408;13.356;2022-10-26T10:23:26;4.35;;;3.53;;
45762;SDS011;37512;52.408;13.356;2022-10-26T10:27:32;4.75;;;3.08;;
45762;SDS011;37512;52.408;13.356;2022-10-26T10:31:34;6.28;;;3.28;;
45762;SDS011;37512;52.408;13.356;2022-10-26T10:35:35;10.50;;;3.50;;
45762;SDS011;37512;52.408;13.356;2022-10-26T10:39:40;5.93;;;3.42;;
45762;SDS011;37512;52.408;13.356;2022-10-26T10:43:43;6.65;;;3.17;;
45762;SDS011;37512;52.408;13.356;2022-10-26T10:52:26;5.63;;;3.10;;
45762;SDS011;37512;52.408;13.356;2022-10-26T10:56:31;7.18;;;3.38;;
45762;SDS011;37512;52.408;13.356;2022-10-26T11:00:35;5.18;;;3.38;;
45762;SDS011;37512;52.408;13.356;2022-10-26T11:09:09;4.53;;;3.05;;
45762;SDS011;37512;52.408;13.356;2022-10-26T11:13:21;4.88;;;2.85;;
45762;SDS011;37512;52.408;13.356;2022-10-26T11:17:31;4.53;;;2.38;;
45762;SDS011;37512;52.408;13.356;2022-10-26T11:21:38;4.65;;;2.60;;
45762;SDS011;37512;52.408;13.356;2022-10-26T11:25:50;4.95;;;2.65;;
45762;SDS011;37512;52.408;13.356;2022-10-26T11:42:47;6.30;;;2.40;;
45762;SDS011;37512;52.408;13.356;2022-10-26T11:46:55;5.18;;;3.08;;
45762;SDS011;37512;52.408;13.356;2022-10-26T11:51:00;4.53;;;2.42;;
45762;SDS011;37512;52.408;13.356;2022-10-26T11:55:04;4.10;;;2.78;;
45762;SDS011;37512;52.408;13.356;2022-10-26T11:59:14;3.85;;;3.00;;
45762;SDS011;37512;52.408;13.356;2022-10-26T12:03:24;2.28;;;1.80;;
45762;SDS011;37512;52.408;13.356;2022-10-26T12:07:29;7.35;;;2.78;;
45762;SDS011;37512;52.408;13.356;2022-10-26T12:11:47;4.45;;;2.65;;
45762;SDS011;37512;52.408;13.356;2022-10-26T12:15:58;2.22;;;1.95;;
45762;SDS011;37512;52.408;13.356;2022-10-26T12:20:17;6.00;;;2.30;;
45762;SDS011;37512;52.408;13.356;2022-10-26T12:24:29;3.22;;;1.65;;
45762;SDS011;37512;52.408;13.356;2022-10-26T12:45:06;2.80;;;1.83;;
45762;SDS011;37512;52.408;13.356;2022-10-26T12:54:00;4.07;;;1.30;;
45762;SDS011;37512;52.408;13.356;2022-10-26T12:58:42;3.45;;;1.23;;
45762;SDS011;37512;52.408;13.356;2022-10-26T13:07:18;4.15;;;1.58;;
45762;SDS011;37512;52.408;13.356;2022-10-26T13:11:33;2.22;;;1.55;;
45762;SDS011;37512;52.408;13.356;2022-10-26T13:20:01;2.20;;;0.93;;
45762;SDS011;37512;52.408;13.356;2022-10-26T13:24:10;1.30;;;0.80;;
45762;SDS011;37512;52.408;13.356;2022-10-26T13:28:41;3.63;;;1.02;;
45762;SDS011;37512;52.408;13.356;2022-10-26T13:32:48;3.63;;;1.02;;
45762;SDS011;37512;52.408;13.356;2022-10-26T13:41:15;2.17;;;1.05;;
45762;SDS011;37512;52.408;13.356;2022-10-26T13:49:51;2.28;;;1.10;;
45762;SDS011;37512;52.408;13.356;2022-10-26T13:53:58;1.38;;;0.95;;
45762;SDS011;37512;52.408;13.356;2022-10-26T13:58:23;3.03;;;1.13;;
45762;SDS011;37512;52.408;13.356;2022-10-26T14:02:41;3.05;;;1.38;;
45762;SDS011;37512;52.408;13.356;2022-10-26T14:06:49;1.75;;;1.00;;
45762;SDS011;37512;52.408;13.356;2022-10-26T14:10:52;1.55;;;1.00;;
45762;SDS011;37512;52.408;13.356;2022-10-26T14:15:04;3.38;;;1.52;;
45762;SDS011;37512;52.408;13.356;2022-10-26T14:19:12;4.57;;;1.38;;
45762;SDS011;37512;52.408;13.356;2022-10-26T14:27:30;3.75;;;1.20;;
45762;SDS011;37512;52.408;13.356;2022-10-26T14:31:38;3.70;;;1.30;;
45762;SDS011;37512;52.408;13.356;2022-10-26T14:35:39;1.67;;;1.17;;
45762;SDS011;37512;52.408;13.356;2022-10-26T14:39:42;4.70;;;1.30;;
45762;SDS011;37512;52.408;13.356;2022-10-26T14:43:47;4.15;;;1.52;;
45762;SDS011;37512;52.408;13.356;2022-10-26T14:47:49;4.00;;;1.30;;
45762;SDS011;37512;52.408;13.356;2022-10-26T14:51:56;7.28;;;1.70;;
45762;SDS011;37512;52.408;13.356;2022-10-26T14:55:58;3.17;;;1.52;;
45762;SDS011;37512;52.408;13.356;2022-10-26T15:00:02;6.28;;;2.58;;
45762;SDS011;37512;52.408;13.356;2022-10-26T15:04:23;6.18;;;1.35;;
45762;SDS011;37512;52.408;13.356;2022-10-26T15:08:39;6.88;;;4.28;;
45762;SDS011;37512;52.408;13.356;2022-10-26T15:12:57;3.72;;;1.67;;
45762;SDS011;37512;52.408;13.356;2022-10-26T15:17:13;3.95;;;1.58;;
45762;SDS011;37512;52.408;13.356;2022-10-26T15:21:32;4.67;;;1.70;;
45762;SDS011;37512;52.408;13.356;2022-10-26T15:25:36;3.53;;;1.48;;
45762;SDS011;37512;52.408;13.356;2022-10-26T15:29:42;6.72;;;1.90;;
45762;SDS011;37512;52.408;13.356;2022-10-26T15:37:52;4.38;;;2.10;;
45762;SDS011;37512;52.408;13.356;2022-10-26T15:41:55;10.30;;;1.50;;
45762;SDS011;37512;52.408;13.356;2022-10-26T15:45:57;9.55;;;3.03;;
45762;SDS011;37512;52.408;13.356;2022-10-26T15:49:59;4.30;;;1.80;;
45762;SDS011;37512;52.408;13.356;2022-10-26T15:54:01;8.30;;;2.22;;
45762;SDS011;37512;52.408;13.356;2022-10-26T15:58:04;4.97;;;2.85;;
45762;SDS011;37512;52.408;13.356;2022-10-26T16:02:12;5.13;;;2.03;;
45762;SDS011;37512;52.408;13.356;2022-10-26T16:06:15;8.90;;;2.20;;
45762;SDS011;37512;52.408;13.356;2022-10-26T16:10:20;7.15;;;1.85;;
45762;SDS011;37512;52.408;13.356;2022-10-26T16:14:23;5.30;;;2.08;;
45762;SDS011;37512;52.408;13.356;2022-10-26T16:18:30;4.47;;;2.30;;
45762;SDS011;37512;52.408;13.356;2022-10-26T16:22:37;7.25;;;2.65;;
45762;SDS011;37512;52.408;13.356;2022-10-26T16:26:42;6.00;;;2.47;;
45762;SDS011;37512;52.408;13.356;2022-10-26T16:30:44;2.78;;;2.15;;
45762;SDS011;37512;52.408;13.356;2022-10-26T16:34:46;2.95;;;2.20;;
45762;SDS011;37512;52.408;13.356;2022-10-26T16:38:49;5.80;;;2.63;;
45762;SDS011;37512;52.408;13.356;2022-10-26T16:42:51;3.22;;;2.20;;
45762;SDS011;37512;52.408;13.356;2022-10-26T16:46:53;8.48;;;2.67;;
45762;SDS011;37512;52.408;13.356;2022-10-26T16:50:55;5.85;;;3.10;;
45762;SDS011;37512;52.408;13.356;2022-10-26T16:54:56;9.52;;;3.47;;
45762;SDS011;37512;52.408;13.356;2022-10-26T16:58:59;6.75;;;3.55;;
45762;SDS011;37512;52.408;13.356;2022-10-26T17:03:01;5.63;;;3.53;;
45762;SDS011;37512;52.408;13.356;2022-10-26T17:07:03;5.45;;;2.92;;
45762;SDS011;37512;52.408;13.356;2022-10-26T17:11:05;6.68;;;3.30;;
45762;SDS011;37512;52.408;13.356;2022-10-26T17:15:08;7.47;;;3.58;;
45762;SDS011;37512;52.408;13.356;2022-10-26T17:19:13;6.35;;;3.55;;
45762;SDS011;37512;52.408;13.356;2022-10-26T17:23:15;4.78;;;3.50;;
45762;SDS011;37512;52.408;13.356;2022-10-26T17:27:17;6.45;;;3.55;;
45762;SDS011;37512;52.408;13.356;2022-10-26T17:31:19;5.07;;;3.03;;
45762;SDS011;37512;52.408;13.356;2022-10-26T17:35:20;7.90;;;3.70;;
45762;SDS011;37512;52.408;13.356;2022-10-26T17:39:22;4.88;;;3.58;;
45762;SDS011;37512;52.408;13.356;2022-10-26T17:43:23;7.68;;;3.30;;
45762;SDS011;37512;52.408;13.356;2022-10-26T17:47:25;6.80;;;3.50;;
45762;SDS011;37512;52.408;13.356;2022-10-26T17:51:27;8.77;;;3.65;;
45762;SDS011;37512;52.408;13.356;2022-10-26T17:55:29;8.05;;;4.32;;
45762;SDS011;37512;52.408;13.356;2022-10-26T17:59:31;8.07;;;3.83;;
45762;SDS011;37512;52.408;13.356;2022-10-26T18:03:32;8.23;;;3.22;;
45762;SDS011;37512;52.408;13.356;2022-10-26T18:07:34;7.50;;;3.35;;
45762;SDS011;37512;52.408;13.356;2022-10-26T18:11:36;6.55;;;2.90;;
45762;SDS011;37512;52.408;13.356;2022-10-26T18:15:37;8.13;;;4.07;;
45762;SDS011;37512;52.408;13.356;2022-10-26T18:19:39;7.57;;;4.07;;
45762;SDS011;37512;52.408;13.356;2022-10-26T18:23:40;10.90;;;5.35;;
45762;SDS011;37512;52.408;13.356;2022-10-26T18:27:42;15.85;;;8.70;;
45762;SDS011;37512;52.408;13.356;2022-10-26T18:31:44;12.20;;;7.35;;
45762;SDS011;37512;52.408;13.356;2022-10-26T18:35:49;12.52;;;8.20;;
45762;SDS011;37512;52.408;13.356;2022-10-26T18:39:51;8.18;;;4.70;;
45762;SDS011;37512;52.408;13.356;2022-10-26T18:43:53;5.53;;;3.42;;
45762;SDS011;37512;52.408;13.356;2022-10-26T18:47:58;7.35;;;4.10;;
45762;SDS011;37512;52.408;13.356;2022-10-26T18:52:00;8.18;;;4.90;;
45762;SDS011;37512;52.408;13.356;2022-10-26T18:56:06;7.00;;;4.38;;
45762;SDS011;37512;52.408;13.356;2022-10-26T19:00:09;5.32;;;3.75;;
45762;SDS011;37512;52.408;13.356;2022-10-26T19:04:11;8.52;;;4.28;;
45762;SDS011;37512;52.408;13.356;2022-10-26T19:08:12;16.45;;;10.38;;
45762;SDS011;37512;52.408;13.356;2022-10-26T19:12:14;19.67;;;11.52;;
45762;SDS011;37512;52.408;13.356;2022-10-26T19:16:16;13.98;;;7.07;;
45762;SDS011;37512;52.408;13.356;2022-10-26T19:20:39;9.02;;;5.43;;
45762;SDS011;37512;52.408;13.356;2022-10-26T19:24:52;12.65;;;5.93;;
45762;SDS011;37512;52.408;13.356;2022-10-26T19:28:54;7.55;;;5.00;;
45762;SDS011;37512;52.408;13.356;2022-10-26T19:32:57;7.38;;;4.70;;
45762;SDS011;37512;52.408;13.356;2022-10-26T19:37:00;7.93;;;5.38;;
45762;SDS011;37512;52.408;13.356;2022-10-26T19:41:03;12.68;;;7.43;;
45762;SDS011;37512;52.408;13.356;2022-10-26T19:45:10;8.93;;;4.32;;
45762;SDS011;37512;52.408;13.356;2022-10-26T19:49:11;11.80;;;6.45;;
45762;SDS011;37512;52.408;13.356;2022-10-26T19:53:13;10.30;;;5.20;;
45762;SDS011;37512;52.408;13.356;2022-10-26T19:57:17;7.25;;;4.50;;
45762;SDS011;37512;52.408;13.356;2022-10-26T20:01:19;11.95;;;5.90;;
45762;SDS011;37512;52.408;13.356;2022-10-26T20:05:20;9.70;;;5.25;;
45762;SDS011;37512;52.408;13.356;2022-10-26T20:09:21;7.38;;;4.35;;
45762;SDS011;37512;52.408;13.356;2022-10-26T20:13:23;10.88;;;5.80;;
45762;SDS011;37512;52.408;13.356;2022-10-26T20:17:24;7.70;;;4.53;;
45762;SDS011;37512;52.408;13.356;2022-10-26T20:21:28;4.80;;;3.80;;
45762;SDS011;37512;52.408;13.356;2022-10-26T20:25:32;8.75;;;5.13;;
45762;SDS011;37512;52.408;13.356;2022-10-26T20:29:38;9.32;;;5.38;;
45762;SDS011;37512;52.408;13.356;2022-10-26T20:33:39;11.57;;;7.45;;
45762;SDS011;37512;52.408;13.356;2022-10-26T20:37:41;9.73;;;5.28;;
45762;SDS011;37512;52.408;13.356;2022-10-26T20:41:42;13.52;;;7.22;;
45762;SDS011;37512;52.408;13.356;2022-10-26T20:45:44;7.30;;;5.45;;
45762;SDS011;37512;52.408;13.356;2022-10-26T20:49:46;9.55;;;6.13;;
45762;SDS011;37512;52.408;13.356;2022-10-26T20:54:10;7.20;;;5.70;;
45762;SDS011;37512;52.408;13.356;2022-10-26T21:02:21;7.05;;;4.53;;
45762;SDS011;37512;52.408;13.356;2022-10-26T21:06:23;8.40;;;5.10;;
45762;SDS011;37512;52.408;13.356;2022-10-26T21:10:27;7.43;;;5.60;;
45762;SDS011;37512;52.408;13.356;2022-10-26T21:14:29;6.13;;;4.80;;
45762;SDS011;37512;52.408;13.356;2022-10-26T21:18:31;14.20;;;5.13;;
45762;SDS011;37512;52.408;13.356;2022-10-26T21:22:32;8.55;;;5.97;;
45762;SDS011;37512;52.408;13.356;2022-10-26T21:26:34;12.27;;;4.95;;
45762;SDS011;37512;52.408;13.356;2022-10-26T21:30:35;9.63;;;5.07;;
45762;SDS011;37512;52.408;13.356;2022-10-26T21:34:37;9.07;;;4.68;;
45762;SDS011;37512;52.408;13.356;2022-10-26T21:38:39;8.80;;;5.38;;
45762;SDS011;37512;52.408;13.356;2022-10-26T21:42:47;8.50;;;5.07;;
45762;SDS011;37512;52.408;13.356;2022-10-26T21:46:49;9.98;;;5.03;;
45762;SDS011;37512;52.408;13.356;2022-10-26T21:50:50;13.57;;;5.45;;
45762;SDS011;37512;52.408;13.356;2022-10-26T21:54:52;7.22;;;5.03;;
45762;SDS011;37512;52.408;13.356;2022-10-26T21:58:53;7.88;;;4.82;;
45762;SDS011;37512;52.408;13.356;2022-10-26T22:02:55;7.50;;;5.00;;
45762;SDS011;37512;52.408;13.356;2022-10-26T22:06:56;7.00;;;4.32;;
45762;SDS011;37512;52.408;13.356;2022-10-26T22:10:58;9.48;;;4.90;;
45762;SDS011;37512;52.408;13.356;2022-10-26T22:15:04;7.63;;;4.90;;
45762;SDS011;37512;52.408;13.356;2022-10-26T22:19:06;7.18;;;5.18;;
45762;SDS011;37512;52.408;13.356;2022-10-26T22:23:09;7.47;;;5.10;;
45762;SDS011;37512;52.408;13.356;2022-10-26T22:27:10;8.77;;;5.80;;
45762;SDS011;37512;52.408;13.356;2022-10-26T22:31:14;6.72;;;5.18;;
45762;SDS011;37512;52.408;13.356;2022-10-26T22:35:17;7.68;;;4.25;;
45762;SDS011;37512;52.408;13.356;2022-10-26T22:39:29;8.48;;;5.15;;
45762;SDS011;37512;52.408;13.356;2022-10-26T22:43:31;8.05;;;4.95;;
45762;SDS011;37512;52.408;13.356;2022-10-26T22:47:33;10.68;;;5.95;;
45762;SDS011;37512;52.408;13.356;2022-10-26T22:51:34;10.07;;;5.38;;
45762;SDS011;37512;52.408;13.356;2022-10-26T22:55:35;12.85;;;6.70;;
45762;SDS011;37512;52.408;13.356;2022-10-26T22:59:37;7.93;;;5.32;;
45762;SDS011;37512;52.408;13.356;2022-10-26T23:03:38;7.38;;;5.30;;
45762;SDS011;37512;52.408;13.356;2022-10-26T23:07:40;7.88;;;5.38;;
45762;SDS011;37512;52.408;13.356;2022-10-26T23:11:41;5.72;;;4.80;;
45762;SDS011;37512;52.408;13.356;2022-10-26T23:15:42;6.65;;;4.55;;
45762;SDS011;37512;52.408;13.356;2022-10-26T23:19:44;10.15;;;5.38;;
45762;SDS011;37512;52.408;13.356;2022-10-26T23:23:46;7.20;;;5.20;;
45762;SDS011;37512;52.408;13.356;2022-10-26T23:27:47;9.48;;;4.65;;
45762;SDS011;37512;52.408;13.356;2022-10-26T23:31:48;6.10;;;4.85;;
45762;SDS011;37512;52.408;13.356;2022-10-26T23:35:50;7.68;;;4.82;;
45762;SDS011;37512;52.408;13.356;2022-10-26T23:39:52;8.80;;;5.82;;
45762;SDS011;37512;52.408;13.356;2022-10-26T23:43:54;6.95;;;5.75;;
45762;SDS011;37512;52.408;13.356;2022-10-26T23:47:55;6.68;;;5.25;;
45762;SDS011;37512;52.408;13.356;2022-10-26T23:51:58;10.32;;;5.70;;
45762;SDS011;37512;52.408;13.356;2022-10-26T23:55:59;7.07;;;4.70;;
